createdAt,value
2022-08-10T00:00:56.321Z,33.62
2022-08-10T00:05:58.068Z,33.65
2022-08-10T00:11:00.100Z,33.58
2022-08-10T00:16:05.481Z,33.64
2022-08-10T00:21:08.707Z,33.44
2022-08-10T00:26:10.763Z,33.44
2022-08-10T00:31:12.847Z,33.77
2022-08-10T00:36:14.865Z,33.53
2022-08-10T00:41:16.796Z,33.57
2022-08-10T00:46:18.557Z,33.73
2022-08-10T00:51:20.564Z,33.58
2022-08-10T00:57:15.154Z,33.83
2022-08-10T01:02:10.728Z,33.87
2022-08-10T01:07:51.594Z,33.98
2022-08-10T01:13:33.721Z,33.74
2022-08-10T01:18:58.510Z,33.76
2022-08-10T01:24:17.832Z,33.87
2022-08-10T01:29:42.393Z,34.21
2022-08-10T01:34:55.625Z,34.01
2022-08-10T01:40:00.356Z,33.81
2022-08-10T01:45:05.508Z,33.79
2022-08-10T01:50:14.109Z,33.91
2022-08-10T01:55:17.854Z,33.84
2022-08-10T02:00:20.269Z,33.68
2022-08-10T02:05:25.168Z,33.96
2022-08-10T02:10:29.467Z,34.17
2022-08-10T02:15:34.001Z,33.93
2022-08-10T02:20:43.917Z,33.87
2022-08-10T02:25:48.115Z,33.94
2022-08-10T02:30:53.439Z,33.99
2022-08-10T02:35:57.508Z,33.76
2022-08-10T02:45:13.649Z,34.24
2022-08-10T02:46:45.482Z,34.22
2022-08-10T02:52:11.802Z,33.83
2022-08-10T02:57:23.267Z,33.99
2022-08-10T03:02:39.648Z,34.05
2022-08-10T03:07:52.105Z,33.79
2022-08-10T03:12:59.758Z,34.21
2022-08-10T03:18:03.207Z,33.95
2022-08-10T03:23:07.729Z,34.17
2022-08-10T03:28:11.263Z,34.04
2022-08-10T03:33:22.657Z,34.27
2022-08-10T03:38:24.803Z,33.89
2022-08-10T03:43:27.715Z,34.17
2022-08-10T03:48:47.216Z,34.25
2022-08-10T03:54:04.974Z,34.40
2022-08-10T03:59:11.436Z,34.03
2022-08-10T04:04:17.819Z,34.33
2022-08-10T04:09:42.831Z,34.55
2022-08-10T04:14:52.439Z,34.42
2022-08-10T04:19:58.290Z,34.34
2022-08-10T04:25:05.351Z,34.34
2022-08-10T04:30:08.172Z,34.75
2022-08-10T04:35:11.310Z,34.49
2022-08-10T04:40:29.000Z,34.44
2022-08-10T04:45:47.806Z,34.73
2022-08-10T04:50:53.742Z,34.68
2022-08-10T04:55:55.718Z,34.56
2022-08-10T05:00:57.934Z,34.86
2022-08-10T05:06:00.076Z,34.68
2022-08-10T05:11:03.589Z,35.21
2022-08-10T05:16:05.701Z,34.93
2022-08-10T05:21:07.860Z,35.00
2022-08-10T05:26:09.986Z,34.94
2022-08-10T05:31:12.286Z,35.16
2022-08-10T05:36:21.414Z,35.16
2022-08-10T05:41:23.816Z,35.16
2022-08-10T05:46:26.075Z,35.45
2022-08-10T05:51:29.758Z,35.62
2022-08-10T05:56:56.611Z,35.67
2022-08-10T06:02:31.477Z,35.95
2022-08-10T06:07:21.801Z,35.66
2022-08-10T06:12:35.192Z,35.63
2022-08-10T06:18:01.616Z,35.54
2022-08-10T06:23:04.886Z,35.45
2022-08-10T06:28:09.317Z,35.56
2022-08-10T06:33:12.924Z,35.24
2022-08-10T06:38:17.075Z,35.63
2022-08-10T06:43:22.642Z,35.72
2022-08-10T06:48:35.012Z,35.80
2022-08-10T06:53:53.192Z,36.72
2022-08-10T06:59:03.893Z,36.93
2022-08-10T07:04:11.543Z,37.67
2022-08-10T07:09:15.842Z,37.51
2022-08-10T07:14:19.027Z,37.69
2022-08-10T07:19:22.257Z,37.59
2022-08-10T07:24:26.308Z,37.42
2022-08-10T07:29:53.472Z,37.32
2022-08-10T07:34:55.369Z,37.68
2022-08-10T07:40:03.430Z,37.14
2022-08-10T07:45:07.099Z,36.88
2022-08-10T07:50:12.335Z,36.96
2022-08-10T07:55:18.703Z,36.95
2022-08-10T08:00:21.620Z,36.98
2022-08-10T08:05:57.601Z,36.94
2022-08-10T08:10:49.350Z,37.71
2022-08-10T08:16:18.014Z,37.07
2022-08-10T08:24:10.785Z,36.84
2022-08-10T08:26:39.107Z,36.79
2022-08-10T08:31:54.281Z,36.77
2022-08-10T08:37:05.689Z,36.48
2022-08-10T08:42:10.325Z,36.72
2022-08-10T08:48:04.325Z,36.43
2022-08-10T08:52:59.662Z,36.29
2022-08-10T08:58:29.382Z,36.51
2022-08-10T09:03:46.211Z,36.37
2022-08-10T09:09:33.645Z,36.35
2022-08-10T09:14:49.078Z,36.15
2022-08-10T09:20:19.598Z,36.08
2022-08-10T09:25:30.587Z,36.19
2022-08-10T09:30:52.428Z,36.08
2022-08-10T09:36:32.861Z,36.17
2022-08-10T09:41:42.153Z,36.38
2022-08-10T09:47:08.180Z,36.04
2022-08-10T09:52:29.204Z,36.38
2022-08-10T09:58:02.104Z,36.12
2022-08-10T10:03:47.337Z,36.52
2022-08-10T10:08:58.322Z,36.44
2022-08-10T10:14:26.034Z,36.71
2022-08-10T10:20:01.134Z,36.61
2022-08-10T10:25:50.021Z,36.64
2022-08-10T10:31:27.828Z,36.53
2022-08-10T10:36:31.150Z,36.22
2022-08-10T10:41:56.508Z,36.18
2022-08-10T10:47:06.893Z,36.12
2022-08-10T10:52:41.172Z,36.14
2022-08-10T10:57:59.434Z,36.23
2022-08-10T11:03:28.976Z,36.04
2022-08-10T11:08:43.524Z,36.14
2022-08-10T11:14:24.714Z,36.24
2022-08-10T11:20:00.464Z,36.07
2022-08-10T11:25:19.948Z,35.47
2022-08-10T11:30:31.625Z,35.48
2022-08-10T11:35:54.073Z,35.54
2022-08-10T11:41:05.617Z,35.52
2022-08-10T11:46:36.701Z,35.81
2022-08-10T11:51:57.580Z,35.63
2022-08-10T11:57:02.511Z,35.51
2022-08-10T12:02:09.706Z,35.69
2022-08-10T12:08:54.970Z,35.75
2022-08-10T12:12:41.354Z,35.83
2022-08-10T12:17:48.838Z,35.93
2022-08-10T12:22:57.218Z,36.12
2022-08-10T12:28:09.512Z,35.99
2022-08-10T12:33:26.959Z,36.81
2022-08-10T12:38:41.081Z,37.06
2022-08-10T12:44:05.051Z,37.07
2022-08-10T12:49:20.223Z,36.76
2022-08-10T12:54:32.527Z,36.52
2022-08-10T12:59:43.282Z,36.67
2022-08-10T13:04:49.645Z,36.94
2022-08-10T13:09:55.667Z,38.30
2022-08-10T13:15:45.101Z,39.46
2022-08-10T13:20:35.588Z,40.19
2022-08-10T13:29:14.068Z,39.98
2022-08-10T13:34:42.924Z,38.50
2022-08-10T13:39:57.907Z,38.19
2022-08-10T13:45:17.529Z,37.67
2022-08-10T13:50:33.449Z,37.32
2022-08-10T13:55:53.835Z,36.90
2022-08-10T14:01:00.315Z,36.77
2022-08-10T14:06:04.477Z,37.04
2022-08-10T14:11:12.451Z,36.71
2022-08-10T14:16:15.848Z,36.82
2022-08-10T14:21:17.990Z,36.64
2022-08-10T14:26:23.406Z,36.27
2022-08-10T14:31:31.383Z,36.47
2022-08-10T14:36:59.413Z,36.28
2022-08-10T14:42:16.760Z,36.37
2022-08-10T14:47:54.231Z,36.75
2022-08-10T14:52:53.087Z,35.89
2022-08-10T14:58:19.073Z,36.32
2022-08-10T15:03:59.565Z,37.24
2022-08-10T15:08:42.760Z,37.25
2022-08-10T15:14:14.740Z,37.98
2022-08-10T15:20:01.549Z,38.02
2022-08-10T15:24:56.183Z,38.12
2022-08-10T15:29:58.961Z,37.93
2022-08-10T15:35:20.721Z,37.22
2022-08-10T15:40:35.959Z,36.27
2022-08-10T15:45:55.947Z,36.75
2022-08-10T15:51:10.240Z,36.46
2022-08-10T15:56:28.190Z,36.16
2022-08-10T16:02:14.481Z,36.16
2022-08-10T16:07:12.418Z,35.74
2022-08-10T16:12:39.269Z,35.57
2022-08-10T16:17:57.580Z,35.21
2022-08-10T16:23:03.786Z,35.27
2022-08-10T16:28:09.879Z,35.03
2022-08-10T16:33:53.420Z,34.34
2022-08-10T16:38:54.248Z,35.13
2022-08-10T16:43:59.633Z,34.66
2022-08-10T16:49:02.755Z,34.41
2022-08-10T16:54:07.473Z,34.04
2022-08-10T16:59:10.347Z,34.11
2022-08-10T17:04:22.159Z,34.02
2022-08-10T17:09:30.594Z,34.08
2022-08-10T17:14:32.464Z,34.33
2022-08-10T17:19:45.088Z,34.10
2022-08-10T17:24:53.106Z,34.46
2022-08-10T17:30:03.796Z,34.67
2022-08-10T17:35:11.670Z,34.90
2022-08-10T17:40:22.718Z,35.49
2022-08-10T17:45:48.683Z,36.10
2022-08-10T17:50:53.167Z,36.39
2022-08-10T17:55:58.154Z,37.85
2022-08-10T18:01:38.909Z,38.64
2022-08-10T18:06:25.843Z,39.60
2022-08-10T18:11:31.352Z,39.41
2022-08-10T18:16:34.657Z,36.62
2022-08-10T18:21:43.862Z,36.03
2022-08-10T18:26:51.253Z,35.71
2022-08-10T18:32:00.074Z,35.82
2022-08-10T18:37:05.640Z,34.94
2022-08-10T18:42:15.245Z,35.83
2022-08-10T18:47:25.749Z,35.21
2022-08-10T18:52:31.999Z,34.82
2022-08-10T18:58:04.467Z,34.62
2022-08-10T19:03:53.722Z,34.48
2022-08-10T19:09:45.996Z,34.09
2022-08-10T19:14:51.746Z,33.98
2022-08-10T19:20:08.870Z,34.73
2022-08-10T19:26:40.699Z,35.59
2022-08-10T19:31:15.361Z,35.24
2022-08-10T19:36:35.850Z,34.98
2022-08-10T19:41:54.370Z,34.93
2022-08-10T19:47:03.299Z,34.99
2022-08-10T19:52:30.533Z,34.76
2022-08-10T19:57:44.652Z,34.83
2022-08-10T20:03:23.115Z,34.89
2022-08-10T20:08:31.829Z,34.91
2022-08-10T20:14:22.236Z,34.79
2022-08-10T20:19:52.492Z,34.54
2022-08-10T20:25:20.881Z,35.00
2022-08-10T20:30:27.417Z,34.65
2022-08-10T20:35:43.869Z,34.70
2022-08-10T20:41:14.134Z,34.79
2022-08-10T20:46:24.654Z,34.55
2022-08-10T20:51:58.635Z,34.13
2022-08-10T20:58:04.053Z,33.91
2022-08-10T21:02:35.487Z,33.76
2022-08-10T21:08:01.811Z,34.16
2022-08-10T21:13:43.145Z,34.27
2022-08-10T21:19:08.962Z,34.36
2022-08-10T21:24:28.609Z,34.66
2022-08-10T21:29:56.094Z,34.60
2022-08-10T21:35:10.166Z,34.76
2022-08-10T21:41:18.211Z,35.03
2022-08-10T21:47:02.631Z,35.23
2022-08-10T21:52:33.480Z,34.95
2022-08-10T21:58:23.037Z,34.81
2022-08-10T22:03:48.139Z,35.16
2022-08-10T22:09:22.120Z,34.91
2022-08-10T22:14:48.431Z,34.88
2022-08-10T22:20:49.582Z,34.75
2022-08-10T22:26:35.499Z,35.13
2022-08-10T22:32:22.223Z,34.95
2022-08-10T22:38:07.634Z,35.04
2022-08-10T22:43:45.196Z,34.85
2022-08-10T22:49:01.039Z,34.85
2022-08-10T22:54:31.821Z,34.81
2022-08-10T22:59:34.075Z,34.86
2022-08-10T23:04:45.330Z,35.10
2022-08-10T23:09:57.670Z,35.16
2022-08-10T23:15:20.997Z,35.13
2022-08-10T23:20:24.593Z,35.03
2022-08-10T23:25:33.019Z,35.25
2022-08-10T23:30:37.483Z,35.01
2022-08-10T23:36:30.368Z,34.89
2022-08-10T23:41:24.999Z,35.11
2022-08-10T23:46:30.792Z,35.04
2022-08-10T23:51:38.729Z,35.21
2022-08-10T23:57:01.496Z,35.38
